CST,Max TemperatureF,Mean TemperatureF,Min TemperatureF,Max Dew PointF,MeanDew PointF,Min DewpointF,Max Humidity, Mean Humidity, Min Humidity, Max Sea Level PressureIn, Mean Sea Level PressureIn, Min Sea Level PressureIn, Max VisibilityMiles, Mean VisibilityMiles, Min VisibilityMiles, Max Wind SpeedMPH, Mean Wind SpeedMPH, Max Gust SpeedMPH,PrecipitationIn, CloudCover, Events, WindDirDegrees
2013-12-1,30,22,14,23,19,10,93,85,74,30.19,30.10,29.93,10,8,4,6,1,,0.00,5,,232
2013-12-2,32,28,24,30,27,21,100,91,86,29.93,29.73,29.62,7,3,0,12,4,16,0.51,8,Snow,102
2013-12-3,32,30,28,32,30,25,100,94,86,29.85,29.73,29.62,10,4,1,12,5,18,0.04,8,Snow,78
2013-12-4,30,24,17,28,23,12,100,87,79,29.83,29.62,29.45,10,5,0,18,8,25,0.42,8,Snow,43
2013-12-5,15,5,-5,10,-2,-11,85,73,62,30.27,29.97,29.59,10,8,0,18,12,25,0.00,2,Snow-Thunderstorm,263
2013-12-6,5,-2,-9,-6,-12,-17,84,73,61,30.58,30.43,30.27,10,10,10,10,5,,0.00,0,,264
2013-12-7,0,-12,-23,-13,-19,-29,84,71,55,30.65,30.60,30.53,10,10,7,12,3,,0.00,0,,240
2013-12-8,8,-7,-22,3,-8,-29,85,78,69,30.53,30.26,30.01,10,5,1,7,1,,0.03,7,Snow,96
2013-12-9,0,-4,-9,-6,-11,-15,85,75,55,30.04,29.97,29.85,10,8,1,15,5,22,0.00,2,Snow,241
2013-12-10,5,-2,-9,0,-7,-15,85,75,61,30.25,29.97,29.77,10,8,0,13,4,20,0.00,3,Snow,285
2013-12-11,0,-7,-14,-8,-14,-22,85,68,51,30.50,30.39,30.26,10,9,2,13,6,17,0.00,1,Snow,251
2013-12-12,14,2,-9,7,-3,-15,85,73,62,30.26,30.20,30.15,10,9,2,6,2,,0.01,5,Snow,216
2013-12-13,12,8,5,7,0,-4,79,72,66,30.33,30.25,30.16,10,9,2,9,4,,0.00,7,Snow,44
2013-12-14,12,4,-4,5,0,-8,85,76,67,30.31,30.15,30.05,10,6,1,12,3,16,0.00,7,Snow,295
2013-12-15,0,-7,-14,-8,-14,-22,78,66,51,30.14,30.11,30.06,10,10,7,13,8,18,0.00,3,,322
2013-12-16,14,5,-4,10,-1,-13,92,76,60,30.10,29.96,29.82,10,7,1,12,3,,0.01,7,Snow,192
2013-12-17,30,12,-5,27,11,-11,93,75,58,30.07,29.94,29.79,10,9,2,21,7,28,0.00,4,Snow,294
2013-12-18,32,14,-4,19,9,-8,93,76,59,30.05,29.77,29.62,10,10,10,10,2,,0.00,2,,171
2013-12-19,19,14,10,16,7,1,86,74,62,30.12,30.04,29.81,10,8,1,10,6,,0.03,5,Snow,19
2013-12-20,19,10,0,9,4,-4,92,80,63,30.07,29.96,29.85,10,9,4,6,2,,0.00,2,Snow,15
2013-12-21,19,14,10,12,10,5,86,81,68,30.02,29.94,29.84,10,10,7,6,1,,0.00,8,Snow,355
2013-12-22,17,12,6,12,9,3,86,81,73,30.20,30.06,29.96,10,4,1,10,5,,0.00,8,Snow,342
2013-12-23,6,-4,-14,1,-8,-20,79,73,66,30.47,30.37,30.20,10,5,1,14,9,21,0.00,7,Snow,332
2013-12-24,8,-8,-25,3,-16,-33,85,73,56,30.45,30.32,30.16,10,8,1,7,1,,0.03,3,Snow,149
2013-12-25,21,14,8,14,9,3,92,78,67,30.10,30.06,30.02,10,8,3,14,3,20,0.00,7,Snow,268
2013-12-26,17,12,6,12,9,3,93,80,73,30.15,30.10,30.07,10,9,3,4,0,,0.00,8,Snow,102
2013-12-27,35,24,12,28,20,9,93,86,70,30.14,29.97,29.83,10,7,0,12,3,,0.00,4,Fog,211
2013-12-28,30,21,12,28,25,5,100,94,73,30.06,29.84,29.70,10,4,0,20,3,28,0.00,8,Fog-Snow,36
2013-12-29,12,-6,-25,5,-16,-31,76,65,46,30.31,30.24,30.07,10,9,0,17,9,25,0.00,3,Snow,334
2013-12-30,-4,-16,-27,-9,-20,-35,84,74,65,30.24,30.20,30.17,10,7,2,4,0,,0.00,5,Snow,285
2013-12-31,-4,-16,-27,-15,-23,-35,77,68,55,30.41,30.29,30.16,10,10,1,7,1,,0.00,1,,325